Minden, Louisiana
Current Conditions -  °F | °C
As of 5:56 PM on Saturday 22 Nov 2014 (Local Time) from KMNE Reporting Station
Overcast Overcast  
Wind Chill: 66°   Ceiling: 2700
Heat Index: 66°   Visibility: 10mi
Dew Point: 57°   Wind: 7mph
Humidity: 73%   Direction: 120°ESE
Pressure: 29.94"   Gusts: NA
Location:  32.62°N, 93.29°W
Report Text: KMNE 222356Z AUTO 12006KT 10SM OVC027 19/14 A2994 RMK AO2 LTG DSNT SW
Loading
Personal Weather Stations






























Interactive Weather Map New forecast layout! Learn more

10-Day Weather Forecast

Advertisements
Track Severe Weather on mobile